sensor_id;sensor_type;location;lat;lon;timestamp;temperature;humidity
12504;DHT22;6316;48.118;-1.690;2023-09-18T00:01:06;20.10;99.90
12504;DHT22;6316;48.118;-1.690;2023-09-18T00:03:33;20.10;99.90
12504;DHT22;6316;48.118;-1.690;2023-09-18T00:05:59;20.00;99.90
12504;DHT22;6316;48.118;-1.690;2023-09-18T00:08:25;20.00;99.90
12504;DHT22;6316;48.118;-1.690;2023-09-18T00:10:53;20.00;99.90
12504;DHT22;6316;48.118;-1.690;2023-09-18T00:13:19;19.90;99.90
12504;DHT22;6316;48.118;-1.690;2023-09-18T00:15:45;19.90;99.90
12504;DHT22;6316;48.118;-1.690;2023-09-18T00:18:14;19.90;99.90
12504;DHT22;6316;48.118;-1.690;2023-09-18T00:20:40;19.90;99.90
12504;DHT22;6316;48.118;-1.690;2023-09-18T00:23:07;19.80;99.90
12504;DHT22;6316;48.118;-1.690;2023-09-18T00:25:33;19.80;99.90
12504;DHT22;6316;48.118;-1.690;2023-09-18T00:27:59;19.80;99.90
12504;DHT22;6316;48.118;-1.690;2023-09-18T00:30:24;19.80;99.90
12504;DHT22;6316;48.118;-1.690;2023-09-18T00:32:50;19.80;99.90
12504;DHT22;6316;48.118;-1.690;2023-09-18T00:35:17;19.70;99.90
12504;DHT22;6316;48.118;-1.690;2023-09-18T00:37:43;19.70;99.90
12504;DHT22;6316;48.118;-1.690;2023-09-18T00:40:09;19.70;99.90
12504;DHT22;6316;48.118;-1.690;2023-09-18T00:42:36;19.70;99.90
12504;DHT22;6316;48.118;-1.690;2023-09-18T00:45:02;19.70;99.90
12504;DHT22;6316;48.118;-1.690;2023-09-18T00:47:28;19.70;99.90
12504;DHT22;6316;48.118;-1.690;2023-09-18T00:49:54;19.70;99.90
12504;DHT22;6316;48.118;-1.690;2023-09-18T00:52:22;19.70;99.90
12504;DHT22;6316;48.118;-1.690;2023-09-18T00:54:49;19.60;99.90
12504;DHT22;6316;48.118;-1.690;2023-09-18T00:57:15;19.60;99.90
12504;DHT22;6316;48.118;-1.690;2023-09-18T00:59:41;19.60;99.90
12504;DHT22;6316;48.118;-1.690;2023-09-18T01:02:07;19.60;99.90
12504;DHT22;6316;48.118;-1.690;2023-09-18T01:04:34;19.60;99.90
12504;DHT22;6316;48.118;-1.690;2023-09-18T01:07:00;19.60;99.90
12504;DHT22;6316;48.118;-1.690;2023-09-18T01:09:32;19.60;99.90
12504;DHT22;6316;48.118;-1.690;2023-09-18T01:12:03;19.50;99.90
12504;DHT22;6316;48.118;-1.690;2023-09-18T01:17:00;19.50;99.90
12504;DHT22;6316;48.118;-1.690;2023-09-18T01:19:42;19.60;99.90
12504;DHT22;6316;48.118;-1.690;2023-09-18T01:22:12;19.60;99.90
12504;DHT22;6316;48.118;-1.690;2023-09-18T01:24:39;19.60;99.90
12504;DHT22;6316;48.118;-1.690;2023-09-18T01:27:07;19.60;99.90
12504;DHT22;6316;48.118;-1.690;2023-09-18T01:29:33;19.70;99.90
12504;DHT22;6316;48.118;-1.690;2023-09-18T01:31:58;19.70;99.90
12504;DHT22;6316;48.118;-1.690;2023-09-18T01:34:33;19.80;99.90
12504;DHT22;6316;48.118;-1.690;2023-09-18T01:37:03;19.80;99.90
12504;DHT22;6316;48.118;-1.690;2023-09-18T01:39:30;19.90;99.90
12504;DHT22;6316;48.118;-1.690;2023-09-18T01:41:59;19.90;99.90
12504;DHT22;6316;48.118;-1.690;2023-09-18T01:44:27;19.90;99.90
12504;DHT22;6316;48.118;-1.690;2023-09-18T01:46:55;20.00;99.90
12504;DHT22;6316;48.118;-1.690;2023-09-18T01:49:35;20.00;99.90
12504;DHT22;6316;48.118;-1.690;2023-09-18T01:52:02;20.00;99.90
12504;DHT22;6316;48.118;-1.690;2023-09-18T01:54:29;20.00;99.90
12504;DHT22;6316;48.118;-1.690;2023-09-18T01:56:55;20.00;99.90
12504;DHT22;6316;48.118;-1.690;2023-09-18T01:59:22;20.00;99.90
12504;DHT22;6316;48.118;-1.690;2023-09-18T02:01:48;20.00;99.90
12504;DHT22;6316;48.118;-1.690;2023-09-18T02:04:14;20.10;99.90
12504;DHT22;6316;48.118;-1.690;2023-09-18T02:06:40;20.10;99.90
12504;DHT22;6316;48.118;-1.690;2023-09-18T02:09:06;20.10;99.90
12504;DHT22;6316;48.118;-1.690;2023-09-18T02:11:38;20.10;99.90
12504;DHT22;6316;48.118;-1.690;2023-09-18T02:14:06;20.10;99.90
12504;DHT22;6316;48.118;-1.690;2023-09-18T02:16:42;20.10;99.90
12504;DHT22;6316;48.118;-1.690;2023-09-18T02:19:13;20.10;99.90
12504;DHT22;6316;48.118;-1.690;2023-09-18T02:21:40;20.20;99.90
12504;DHT22;6316;48.118;-1.690;2023-09-18T02:24:06;20.20;99.90
12504;DHT22;6316;48.118;-1.690;2023-09-18T02:26:32;20.20;99.90
12504;DHT22;6316;48.118;-1.690;2023-09-18T02:29:08;20.20;99.90
12504;DHT22;6316;48.118;-1.690;2023-09-18T02:31:39;20.20;99.90
12504;DHT22;6316;48.118;-1.690;2023-09-18T02:34:04;20.20;99.90
12504;DHT22;6316;48.118;-1.690;2023-09-18T02:36:30;20.20;99.90
12504;DHT22;6316;48.118;-1.690;2023-09-18T02:38:56;20.20;99.90
12504;DHT22;6316;48.118;-1.690;2023-09-18T02:41:21;20.20;99.90
12504;DHT22;6316;48.118;-1.690;2023-09-18T02:43:47;20.20;99.90
12504;DHT22;6316;48.118;-1.690;2023-09-18T02:46:13;20.20;99.90
12504;DHT22;6316;48.118;-1.690;2023-09-18T02:48:38;20.20;99.90
12504;DHT22;6316;48.118;-1.690;2023-09-18T02:51:05;20.20;99.90
12504;DHT22;6316;48.118;-1.690;2023-09-18T02:53:31;20.20;99.90
12504;DHT22;6316;48.118;-1.690;2023-09-18T02:55:58;20.20;99.90
12504;DHT22;6316;48.118;-1.690;2023-09-18T02:58:25;20.20;99.90
12504;DHT22;6316;48.118;-1.690;2023-09-18T03:00:52;20.20;99.90
12504;DHT22;6316;48.118;-1.690;2023-09-18T03:03:21;20.20;99.90
12504;DHT22;6316;48.118;-1.690;2023-09-18T03:05:47;20.20;99.90
12504;DHT22;6316;48.118;-1.690;2023-09-18T03:08:14;20.20;99.90
12504;DHT22;6316;48.118;-1.690;2023-09-18T03:10:41;20.10;99.90
12504;DHT22;6316;48.118;-1.690;2023-09-18T03:13:10;20.10;99.90
12504;DHT22;6316;48.118;-1.690;2023-09-18T03:15:36;20.00;99.90
12504;DHT22;6316;48.118;-1.690;2023-09-18T03:18:03;20.00;99.90
12504;DHT22;6316;48.118;-1.690;2023-09-18T03:20:30;19.90;99.90
12504;DHT22;6316;48.118;-1.690;2023-09-18T03:22:58;19.80;99.90
12504;DHT22;6316;48.118;-1.690;2023-09-18T03:25:24;19.90;99.90
12504;DHT22;6316;48.118;-1.690;2023-09-18T03:27:52;19.80;99.90
12504;DHT22;6316;48.118;-1.690;2023-09-18T03:30:19;19.80;99.90
12504;DHT22;6316;48.118;-1.690;2023-09-18T03:32:45;19.80;99.90
12504;DHT22;6316;48.118;-1.690;2023-09-18T03:35:11;19.80;99.90
12504;DHT22;6316;48.118;-1.690;2023-09-18T03:37:47;19.80;99.90
12504;DHT22;6316;48.118;-1.690;2023-09-18T03:40:14;19.90;99.90
12504;DHT22;6316;48.118;-1.690;2023-09-18T03:42:42;19.90;99.90
12504;DHT22;6316;48.118;-1.690;2023-09-18T03:45:08;19.90;99.90
12504;DHT22;6316;48.118;-1.690;2023-09-18T03:47:35;19.90;99.90
12504;DHT22;6316;48.118;-1.690;2023-09-18T03:50:05;20.00;99.90
12504;DHT22;6316;48.118;-1.690;2023-09-18T03:52:31;20.00;99.90
12504;DHT22;6316;48.118;-1.690;2023-09-18T03:54:56;20.00;99.90
12504;DHT22;6316;48.118;-1.690;2023-09-18T03:57:22;19.80;99.90
12504;DHT22;6316;48.118;-1.690;2023-09-18T03:59:48;20.00;99.90
12504;DHT22;6316;48.118;-1.690;2023-09-18T04:02:13;20.00;99.90
12504;DHT22;6316;48.118;-1.690;2023-09-18T04:04:39;20.00;99.90
12504;DHT22;6316;48.118;-1.690;2023-09-18T04:07:08;20.00;99.90
12504;DHT22;6316;48.118;-1.690;2023-09-18T04:09:34;20.00;99.90
12504;DHT22;6316;48.118;-1.690;2023-09-18T04:12:04;20.00;99.90
12504;DHT22;6316;48.118;-1.690;2023-09-18T04:14:31;19.90;99.90
12504;DHT22;6316;48.118;-1.690;2023-09-18T04:16:57;19.90;99.90
12504;DHT22;6316;48.118;-1.690;2023-09-18T04:19:23;19.80;99.90
12504;DHT22;6316;48.118;-1.690;2023-09-18T04:21:48;19.80;99.90
12504;DHT22;6316;48.118;-1.690;2023-09-18T04:24:14;19.70;99.90
12504;DHT22;6316;48.118;-1.690;2023-09-18T04:26:40;19.70;99.90
12504;DHT22;6316;48.118;-1.690;2023-09-18T04:29:05;19.60;99.90
12504;DHT22;6316;48.118;-1.690;2023-09-18T04:31:31;19.60;99.90
12504;DHT22;6316;48.118;-1.690;2023-09-18T04:33:57;19.60;99.90
12504;DHT22;6316;48.118;-1.690;2023-09-18T04:36:23;19.60;99.90
12504;DHT22;6316;48.118;-1.690;2023-09-18T04:38:50;19.60;99.90
12504;DHT22;6316;48.118;-1.690;2023-09-18T04:41:16;19.60;99.90
12504;DHT22;6316;48.118;-1.690;2023-09-18T04:43:41;19.60;99.90
12504;DHT22;6316;48.118;-1.690;2023-09-18T04:46:10;19.60;99.90
12504;DHT22;6316;48.118;-1.690;2023-09-18T04:48:36;19.70;99.90
12504;DHT22;6316;48.118;-1.690;2023-09-18T04:51:02;19.70;99.90
12504;DHT22;6316;48.118;-1.690;2023-09-18T04:53:29;19.70;99.90
12504;DHT22;6316;48.118;-1.690;2023-09-18T04:55:55;19.70;99.90
12504;DHT22;6316;48.118;-1.690;2023-09-18T04:58:21;19.70;99.90
12504;DHT22;6316;48.118;-1.690;2023-09-18T05:00:57;19.70;99.90
12504;DHT22;6316;48.118;-1.690;2023-09-18T05:03:23;19.60;99.90
12504;DHT22;6316;48.118;-1.690;2023-09-18T05:05:49;19.60;99.90
12504;DHT22;6316;48.118;-1.690;2023-09-18T05:08:15;19.60;99.90
12504;DHT22;6316;48.118;-1.690;2023-09-18T05:10:41;19.60;99.90
12504;DHT22;6316;48.118;-1.690;2023-09-18T05:13:07;19.50;99.90
12504;DHT22;6316;48.118;-1.690;2023-09-18T05:15:33;19.50;99.90
12504;DHT22;6316;48.118;-1.690;2023-09-18T05:18:00;19.40;99.90
12504;DHT22;6316;48.118;-1.690;2023-09-18T05:20:27;19.40;99.90
12504;DHT22;6316;48.118;-1.690;2023-09-18T05:22:54;19.40;99.90
12504;DHT22;6316;48.118;-1.690;2023-09-18T05:25:21;19.40;99.90
12504;DHT22;6316;48.118;-1.690;2023-09-18T05:28:00;19.40;99.90
12504;DHT22;6316;48.118;-1.690;2023-09-18T05:30:27;19.40;99.90
12504;DHT22;6316;48.118;-1.690;2023-09-18T05:32:54;19.40;99.90
12504;DHT22;6316;48.118;-1.690;2023-09-18T05:35:20;19.40;99.90
12504;DHT22;6316;48.118;-1.690;2023-09-18T05:37:46;19.40;99.90
12504;DHT22;6316;48.118;-1.690;2023-09-18T05:40:13;19.30;99.90
12504;DHT22;6316;48.118;-1.690;2023-09-18T05:42:40;19.30;99.90
12504;DHT22;6316;48.118;-1.690;2023-09-18T05:45:08;19.30;99.90
12504;DHT22;6316;48.118;-1.690;2023-09-18T05:47:34;19.30;99.90
12504;DHT22;6316;48.118;-1.690;2023-09-18T05:50:07;19.30;99.90
12504;DHT22;6316;48.118;-1.690;2023-09-18T05:52:34;19.30;99.90
12504;DHT22;6316;48.118;-1.690;2023-09-18T05:55:01;19.30;99.90
12504;DHT22;6316;48.118;-1.690;2023-09-18T05:57:27;19.30;99.90
12504;DHT22;6316;48.118;-1.690;2023-09-18T05:59:55;19.30;99.90
12504;DHT22;6316;48.118;-1.690;2023-09-18T06:02:21;19.40;99.90
12504;DHT22;6316;48.118;-1.690;2023-09-18T06:04:46;19.40;99.90
12504;DHT22;6316;48.118;-1.690;2023-09-18T06:07:12;19.40;99.90
12504;DHT22;6316;48.118;-1.690;2023-09-18T06:09:39;19.40;99.90
12504;DHT22;6316;48.118;-1.690;2023-09-18T06:12:04;19.50;99.90
12504;DHT22;6316;48.118;-1.690;2023-09-18T06:14:31;19.50;99.90
12504;DHT22;6316;48.118;-1.690;2023-09-18T06:16:57;19.60;99.90
12504;DHT22;6316;48.118;-1.690;2023-09-18T06:19:23;19.60;99.90
12504;DHT22;6316;48.118;-1.690;2023-09-18T06:21:48;19.70;99.90
12504;DHT22;6316;48.118;-1.690;2023-09-18T06:24:14;19.70;99.90
12504;DHT22;6316;48.118;-1.690;2023-09-18T06:26:40;19.70;99.90
12504;DHT22;6316;48.118;-1.690;2023-09-18T06:29:06;19.80;99.90
12504;DHT22;6316;48.118;-1.690;2023-09-18T06:31:31;19.80;99.90
12504;DHT22;6316;48.118;-1.690;2023-09-18T06:33:57;19.90;99.90
12504;DHT22;6316;48.118;-1.690;2023-09-18T06:36:23;20.00;99.90
12504;DHT22;6316;48.118;-1.690;2023-09-18T06:38:49;20.00;99.90
12504;DHT22;6316;48.118;-1.690;2023-09-18T06:41:14;20.10;99.90
12504;DHT22;6316;48.118;-1.690;2023-09-18T06:43:40;20.20;99.90
12504;DHT22;6316;48.118;-1.690;2023-09-18T06:46:07;20.30;99.90
12504;DHT22;6316;48.118;-1.690;2023-09-18T06:48:33;20.40;99.90
12504;DHT22;6316;48.118;-1.690;2023-09-18T06:50:59;20.40;99.90
12504;DHT22;6316;48.118;-1.690;2023-09-18T06:53:27;20.60;99.90
12504;DHT22;6316;48.118;-1.690;2023-09-18T06:55:54;20.70;99.90
12504;DHT22;6316;48.118;-1.690;2023-09-18T06:58:19;20.80;99.90
12504;DHT22;6316;48.118;-1.690;2023-09-18T07:00:45;20.90;99.90
12504;DHT22;6316;48.118;-1.690;2023-09-18T07:03:11;21.00;99.90
12504;DHT22;6316;48.118;-1.690;2023-09-18T07:05:37;21.00;99.90
12504;DHT22;6316;48.118;-1.690;2023-09-18T07:08:03;21.00;99.90
12504;DHT22;6316;48.118;-1.690;2023-09-18T07:10:31;21.00;99.90
12504;DHT22;6316;48.118;-1.690;2023-09-18T07:12:58;21.00;99.90
12504;DHT22;6316;48.118;-1.690;2023-09-18T07:15:23;20.90;99.90
12504;DHT22;6316;48.118;-1.690;2023-09-18T07:17:49;20.90;99.90
12504;DHT22;6316;48.118;-1.690;2023-09-18T07:20:15;20.90;99.90
12504;DHT22;6316;48.118;-1.690;2023-09-18T07:22:45;21.00;99.90
12504;DHT22;6316;48.118;-1.690;2023-09-18T07:25:11;21.00;99.90
12504;DHT22;6316;48.118;-1.690;2023-09-18T07:27:36;21.10;99.90
12504;DHT22;6316;48.118;-1.690;2023-09-18T07:30:04;21.30;99.90
12504;DHT22;6316;48.118;-1.690;2023-09-18T07:32:31;21.50;99.90
12504;DHT22;6316;48.118;-1.690;2023-09-18T07:34:57;21.60;99.90
12504;DHT22;6316;48.118;-1.690;2023-09-18T07:37:23;21.60;99.90
12504;DHT22;6316;48.118;-1.690;2023-09-18T07:39:49;21.50;99.90
12504;DHT22;6316;48.118;-1.690;2023-09-18T07:42:15;21.50;99.90
12504;DHT22;6316;48.118;-1.690;2023-09-18T07:44:40;21.40;99.90
12504;DHT22;6316;48.118;-1.690;2023-09-18T07:47:06;21.30;99.90
12504;DHT22;6316;48.118;-1.690;2023-09-18T07:49:31;21.20;99.90
12504;DHT22;6316;48.118;-1.690;2023-09-18T07:51:57;21.20;99.90
12504;DHT22;6316;48.118;-1.690;2023-09-18T07:54:23;21.20;99.90
12504;DHT22;6316;48.118;-1.690;2023-09-18T07:56:48;21.10;99.90
12504;DHT22;6316;48.118;-1.690;2023-09-18T07:59:14;21.10;99.90
12504;DHT22;6316;48.118;-1.690;2023-09-18T08:01:41;21.10;99.90
12504;DHT22;6316;48.118;-1.690;2023-09-18T08:04:06;21.20;99.90
12504;DHT22;6316;48.118;-1.690;2023-09-18T08:06:32;21.30;99.90
12504;DHT22;6316;48.118;-1.690;2023-09-18T08:08:58;21.50;99.90
12504;DHT22;6316;48.118;-1.690;2023-09-18T08:11:24;21.60;99.90
12504;DHT22;6316;48.118;-1.690;2023-09-18T08:13:49;21.70;99.90
12504;DHT22;6316;48.118;-1.690;2023-09-18T08:16:15;21.80;99.90
12504;DHT22;6316;48.118;-1.690;2023-09-18T08:18:42;21.90;99.90
12504;DHT22;6316;48.118;-1.690;2023-09-18T08:21:08;21.90;99.90
12504;DHT22;6316;48.118;-1.690;2023-09-18T08:23:35;22.00;99.90
12504;DHT22;6316;48.118;-1.690;2023-09-18T08:26:02;22.10;99.90
12504;DHT22;6316;48.118;-1.690;2023-09-18T08:28:29;22.10;99.90
12504;DHT22;6316;48.118;-1.690;2023-09-18T08:30:55;22.20;99.90
12504;DHT22;6316;48.118;-1.690;2023-09-18T08:33:21;22.30;99.90
12504;DHT22;6316;48.118;-1.690;2023-09-18T08:35:46;22.30;99.90
12504;DHT22;6316;48.118;-1.690;2023-09-18T08:38:14;22.30;99.90
12504;DHT22;6316;48.118;-1.690;2023-09-18T08:40:41;22.30;99.90
12504;DHT22;6316;48.118;-1.690;2023-09-18T08:43:08;22.30;99.90
12504;DHT22;6316;48.118;-1.690;2023-09-18T08:45:40;22.30;99.90
12504;DHT22;6316;48.118;-1.690;2023-09-18T08:48:09;22.30;99.90
12504;DHT22;6316;48.118;-1.690;2023-09-18T08:50:36;22.30;99.90
12504;DHT22;6316;48.118;-1.690;2023-09-18T08:53:03;22.40;99.90
12504;DHT22;6316;48.118;-1.690;2023-09-18T08:55:29;22.50;99.90
12504;DHT22;6316;48.118;-1.690;2023-09-18T08:57:55;22.60;99.90
12504;DHT22;6316;48.118;-1.690;2023-09-18T09:00:23;22.60;99.90
12504;DHT22;6316;48.118;-1.690;2023-09-18T09:02:48;22.70;99.90
12504;DHT22;6316;48.118;-1.690;2023-09-18T09:05:16;22.80;99.90
12504;DHT22;6316;48.118;-1.690;2023-09-18T09:07:42;22.80;99.90
12504;DHT22;6316;48.118;-1.690;2023-09-18T09:10:08;22.80;99.90
12504;DHT22;6316;48.118;-1.690;2023-09-18T09:12:56;22.80;99.90
12504;DHT22;6316;48.118;-1.690;2023-09-18T09:15:25;22.80;99.90
12504;DHT22;6316;48.118;-1.690;2023-09-18T09:17:52;22.80;99.90
12504;DHT22;6316;48.118;-1.690;2023-09-18T09:20:26;22.80;99.90
12504;DHT22;6316;48.118;-1.690;2023-09-18T09:22:52;22.70;99.90
12504;DHT22;6316;48.118;-1.690;2023-09-18T09:25:25;22.70;99.90
12504;DHT22;6316;48.118;-1.690;2023-09-18T09:27:54;22.70;99.90
12504;DHT22;6316;48.118;-1.690;2023-09-18T09:30:25;22.70;99.90
12504;DHT22;6316;48.118;-1.690;2023-09-18T09:32:52;22.60;99.90
12504;DHT22;6316;48.118;-1.690;2023-09-18T09:35:29;22.60;99.90
12504;DHT22;6316;48.118;-1.690;2023-09-18T09:38:00;22.60;99.90
12504;DHT22;6316;48.118;-1.690;2023-09-18T09:40:28;22.60;99.90
12504;DHT22;6316;48.118;-1.690;2023-09-18T09:42:55;22.60;99.90
12504;DHT22;6316;48.118;-1.690;2023-09-18T09:45:27;22.70;99.90
12504;DHT22;6316;48.118;-1.690;2023-09-18T09:47:55;22.70;99.90
12504;DHT22;6316;48.118;-1.690;2023-09-18T09:50:20;22.80;99.90
12504;DHT22;6316;48.118;-1.690;2023-09-18T09:52:49;22.80;99.90
12504;DHT22;6316;48.118;-1.690;2023-09-18T09:55:33;22.90;99.90
12504;DHT22;6316;48.118;-1.690;2023-09-18T09:58:04;23.00;99.90
12504;DHT22;6316;48.118;-1.690;2023-09-18T10:00:49;23.00;99.90
12504;DHT22;6316;48.118;-1.690;2023-09-18T10:03:17;23.00;99.90
12504;DHT22;6316;48.118;-1.690;2023-09-18T10:05:45;22.90;99.90
12504;DHT22;6316;48.118;-1.690;2023-09-18T10:10:50;22.80;99.90
12504;DHT22;6316;48.118;-1.690;2023-09-18T10:13:32;22.80;99.90
12504;DHT22;6316;48.118;-1.690;2023-09-18T10:16:00;22.80;99.90
12504;DHT22;6316;48.118;-1.690;2023-09-18T10:18:43;22.80;99.90
12504;DHT22;6316;48.118;-1.690;2023-09-18T10:26:58;22.80;99.90
12504;DHT22;6316;48.118;-1.690;2023-09-18T10:29:25;22.80;99.90
12504;DHT22;6316;48.118;-1.690;2023-09-18T10:31:52;22.90;99.90
12504;DHT22;6316;48.118;-1.690;2023-09-18T10:34:18;22.90;99.90
12504;DHT22;6316;48.118;-1.690;2023-09-18T10:36:47;22.90;99.90
12504;DHT22;6316;48.118;-1.690;2023-09-18T10:39:13;22.90;99.90
12504;DHT22;6316;48.118;-1.690;2023-09-18T10:41:52;22.90;99.90
12504;DHT22;6316;48.118;-1.690;2023-09-18T10:44:19;22.90;99.90
12504;DHT22;6316;48.118;-1.690;2023-09-18T10:46:45;22.90;99.90
12504;DHT22;6316;48.118;-1.690;2023-09-18T10:49:11;22.90;99.90
12504;DHT22;6316;48.118;-1.690;2023-09-18T10:51:37;23.00;99.90
12504;DHT22;6316;48.118;-1.690;2023-09-18T10:54:08;23.00;99.90
12504;DHT22;6316;48.118;-1.690;2023-09-18T10:56:34;23.10;99.90
12504;DHT22;6316;48.118;-1.690;2023-09-18T10:59:01;23.10;99.90
12504;DHT22;6316;48.118;-1.690;2023-09-18T11:01:29;23.20;99.90
12504;DHT22;6316;48.118;-1.690;2023-09-18T11:04:00;23.30;99.90
12504;DHT22;6316;48.118;-1.690;2023-09-18T11:06:27;23.40;99.90
12504;DHT22;6316;48.118;-1.690;2023-09-18T11:09:01;23.50;99.90
12504;DHT22;6316;48.118;-1.690;2023-09-18T11:11:29;23.60;99.90
12504;DHT22;6316;48.118;-1.690;2023-09-18T11:13:58;23.60;99.90
12504;DHT22;6316;48.118;-1.690;2023-09-18T11:19:08;23.70;99.90
12504;DHT22;6316;48.118;-1.690;2023-09-18T11:21:34;23.80;99.90
12504;DHT22;6316;48.118;-1.690;2023-09-18T11:24:09;23.80;99.90
12504;DHT22;6316;48.118;-1.690;2023-09-18T11:26:42;23.80;99.90
12504;DHT22;6316;48.118;-1.690;2023-09-18T11:29:10;23.80;99.90
12504;DHT22;6316;48.118;-1.690;2023-09-18T11:31:56;23.80;99.90
12504;DHT22;6316;48.118;-1.690;2023-09-18T11:34:26;23.80;99.90
12504;DHT22;6316;48.118;-1.690;2023-09-18T11:36:52;23.90;99.90
12504;DHT22;6316;48.118;-1.690;2023-09-18T11:39:35;24.00;99.90
12504;DHT22;6316;48.118;-1.690;2023-09-18T11:42:11;24.10;99.90
12504;DHT22;6316;48.118;-1.690;2023-09-18T11:44:38;24.20;99.90
12504;DHT22;6316;48.118;-1.690;2023-09-18T11:47:09;24.30;99.90
12504;DHT22;6316;48.118;-1.690;2023-09-18T11:49:39;24.50;99.90
12504;DHT22;6316;48.118;-1.690;2023-09-18T11:52:09;24.50;99.90
12504;DHT22;6316;48.118;-1.690;2023-09-18T11:54:35;24.70;99.90
12504;DHT22;6316;48.118;-1.690;2023-09-18T11:57:03;24.70;99.90
12504;DHT22;6316;48.118;-1.690;2023-09-18T11:59:37;24.70;99.90
12504;DHT22;6316;48.118;-1.690;2023-09-18T12:02:03;24.70;99.90
12504;DHT22;6316;48.118;-1.690;2023-09-18T12:04:32;24.70;99.90
12504;DHT22;6316;48.118;-1.690;2023-09-18T12:07:03;24.70;99.90
12504;DHT22;6316;48.118;-1.690;2023-09-18T12:09:31;24.60;99.90
12504;DHT22;6316;48.118;-1.690;2023-09-18T12:12:00;24.50;99.90
12504;DHT22;6316;48.118;-1.690;2023-09-18T12:14:33;24.50;99.90
12504;DHT22;6316;48.118;-1.690;2023-09-18T12:17:00;24.40;99.90
12504;DHT22;6316;48.118;-1.690;2023-09-18T12:19:26;24.40;99.90
12504;DHT22;6316;48.118;-1.690;2023-09-18T12:21:52;24.40;99.90
12504;DHT22;6316;48.118;-1.690;2023-09-18T12:24:24;24.40;99.90
12504;DHT22;6316;48.118;-1.690;2023-09-18T12:26:54;24.40;99.90
12504;DHT22;6316;48.118;-1.690;2023-09-18T12:29:20;24.30;99.90
12504;DHT22;6316;48.118;-1.690;2023-09-18T12:31:46;24.30;99.90
12504;DHT22;6316;48.118;-1.690;2023-09-18T12:34:17;24.20;99.90
12504;DHT22;6316;48.118;-1.690;2023-09-18T12:36:43;24.20;99.90
12504;DHT22;6316;48.118;-1.690;2023-09-18T12:39:09;24.20;99.90
12504;DHT22;6316;48.118;-1.690;2023-09-18T12:41:36;24.20;99.90
12504;DHT22;6316;48.118;-1.690;2023-09-18T12:44:04;24.20;99.90
12504;DHT22;6316;48.118;-1.690;2023-09-18T12:46:31;24.30;99.90
12504;DHT22;6316;48.118;-1.690;2023-09-18T12:48:57;24.30;99.90
12504;DHT22;6316;48.118;-1.690;2023-09-18T12:51:30;24.30;99.90
12504;DHT22;6316;48.118;-1.690;2023-09-18T12:54:00;24.40;99.90
12504;DHT22;6316;48.118;-1.690;2023-09-18T12:56:26;24.30;99.90
12504;DHT22;6316;48.118;-1.690;2023-09-18T12:58:52;24.20;99.90
12504;DHT22;6316;48.118;-1.690;2023-09-18T13:01:22;24.10;99.90
12504;DHT22;6316;48.118;-1.690;2023-09-18T13:03:48;24.10;99.90
12504;DHT22;6316;48.118;-1.690;2023-09-18T13:06:18;24.10;99.90
12504;DHT22;6316;48.118;-1.690;2023-09-18T13:08:45;24.20;99.90
12504;DHT22;6316;48.118;-1.690;2023-09-18T13:11:11;24.20;99.90
12504;DHT22;6316;48.118;-1.690;2023-09-18T13:13:39;24.20;99.90
12504;DHT22;6316;48.118;-1.690;2023-09-18T13:16:07;24.30;99.90
12504;DHT22;6316;48.118;-1.690;2023-09-18T13:18:37;24.30;99.90
12504;DHT22;6316;48.118;-1.690;2023-09-18T13:21:14;24.30;99.90
12504;DHT22;6316;48.118;-1.690;2023-09-18T13:23:40;24.30;99.90
12504;DHT22;6316;48.118;-1.690;2023-09-18T13:26:07;24.20;99.90
12504;DHT22;6316;48.118;-1.690;2023-09-18T13:28:36;24.20;99.90
12504;DHT22;6316;48.118;-1.690;2023-09-18T13:31:05;24.20;99.90
12504;DHT22;6316;48.118;-1.690;2023-09-18T13:33:32;24.10;99.90
12504;DHT22;6316;48.118;-1.690;2023-09-18T13:35:59;24.10;99.90
12504;DHT22;6316;48.118;-1.690;2023-09-18T13:38:25;24.10;99.90
12504;DHT22;6316;48.118;-1.690;2023-09-18T13:40:52;24.10;99.90
12504;DHT22;6316;48.118;-1.690;2023-09-18T13:43:19;24.20;99.90
12504;DHT22;6316;48.118;-1.690;2023-09-18T13:45:47;24.30;99.90
12504;DHT22;6316;48.118;-1.690;2023-09-18T13:48:13;24.20;99.90
12504;DHT22;6316;48.118;-1.690;2023-09-18T13:50:41;24.30;99.90
12504;DHT22;6316;48.118;-1.690;2023-09-18T13:53:06;24.30;99.90
12504;DHT22;6316;48.118;-1.690;2023-09-18T13:55:33;24.30;99.90
12504;DHT22;6316;48.118;-1.690;2023-09-18T13:58:00;24.30;99.90
12504;DHT22;6316;48.118;-1.690;2023-09-18T14:00:28;24.20;99.90
12504;DHT22;6316;48.118;-1.690;2023-09-18T14:02:54;24.20;99.90
12504;DHT22;6316;48.118;-1.690;2023-09-18T14:05:20;24.20;99.90
12504;DHT22;6316;48.118;-1.690;2023-09-18T14:07:46;24.20;99.90
12504;DHT22;6316;48.118;-1.690;2023-09-18T14:10:13;24.20;99.90
12504;DHT22;6316;48.118;-1.690;2023-09-18T14:12:41;24.20;99.90
12504;DHT22;6316;48.118;-1.690;2023-09-18T14:15:08;24.20;99.90
12504;DHT22;6316;48.118;-1.690;2023-09-18T14:17:35;24.10;99.90
12504;DHT22;6316;48.118;-1.690;2023-09-18T14:20:01;24.10;99.90
12504;DHT22;6316;48.118;-1.690;2023-09-18T14:22:32;24.00;99.90
12504;DHT22;6316;48.118;-1.690;2023-09-18T14:24:58;23.90;99.90
12504;DHT22;6316;48.118;-1.690;2023-09-18T14:27:23;23.90;99.90
12504;DHT22;6316;48.118;-1.690;2023-09-18T14:29:49;23.80;99.90
12504;DHT22;6316;48.118;-1.690;2023-09-18T14:32:14;23.70;99.90
12504;DHT22;6316;48.118;-1.690;2023-09-18T14:34:41;23.70;99.90
12504;DHT22;6316;48.118;-1.690;2023-09-18T14:37:07;23.70;99.90
12504;DHT22;6316;48.118;-1.690;2023-09-18T14:39:33;23.80;99.90
12504;DHT22;6316;48.118;-1.690;2023-09-18T14:41:59;23.80;99.90
12504;DHT22;6316;48.118;-1.690;2023-09-18T14:44:25;23.80;99.90
12504;DHT22;6316;48.118;-1.690;2023-09-18T14:46:52;23.80;99.90
12504;DHT22;6316;48.118;-1.690;2023-09-18T14:49:18;23.80;99.90
12504;DHT22;6316;48.118;-1.690;2023-09-18T14:51:44;23.80;99.90
12504;DHT22;6316;48.118;-1.690;2023-09-18T14:54:09;23.80;99.90
12504;DHT22;6316;48.118;-1.690;2023-09-18T14:56:36;23.80;99.90
12504;DHT22;6316;48.118;-1.690;2023-09-18T14:59:02;23.80;99.90
12504;DHT22;6316;48.118;-1.690;2023-09-18T15:01:28;23.80;99.90
12504;DHT22;6316;48.118;-1.690;2023-09-18T15:03:54;23.80;99.90
12504;DHT22;6316;48.118;-1.690;2023-09-18T15:06:20;23.80;99.90
12504;DHT22;6316;48.118;-1.690;2023-09-18T15:08:46;23.80;99.90
12504;DHT22;6316;48.118;-1.690;2023-09-18T15:11:12;23.80;99.90
12504;DHT22;6316;48.118;-1.690;2023-09-18T15:13:39;23.80;99.90
12504;DHT22;6316;48.118;-1.690;2023-09-18T15:16:05;23.80;99.90
12504;DHT22;6316;48.118;-1.690;2023-09-18T15:18:31;23.80;99.90
12504;DHT22;6316;48.118;-1.690;2023-09-18T15:20:57;23.80;99.90
12504;DHT22;6316;48.118;-1.690;2023-09-18T15:23:24;23.80;99.90
12504;DHT22;6316;48.118;-1.690;2023-09-18T15:25:50;23.80;99.90
12504;DHT22;6316;48.118;-1.690;2023-09-18T15:28:21;23.80;99.90
12504;DHT22;6316;48.118;-1.690;2023-09-18T15:30:49;23.90;99.90
12504;DHT22;6316;48.118;-1.690;2023-09-18T15:33:15;23.90;99.90
12504;DHT22;6316;48.118;-1.690;2023-09-18T15:35:45;23.90;99.90
12504;DHT22;6316;48.118;-1.690;2023-09-18T15:38:11;24.00;99.90
12504;DHT22;6316;48.118;-1.690;2023-09-18T15:40:37;24.00;99.90
12504;DHT22;6316;48.118;-1.690;2023-09-18T15:43:03;24.00;99.90
12504;DHT22;6316;48.118;-1.690;2023-09-18T15:45:29;24.00;99.90